createdAt,value
2023-03-26T00:01:37.042Z,5.70
2023-03-26T00:04:07.005Z,22.90
2023-03-26T00:06:39.824Z,10.43
2023-03-26T00:09:10.351Z,6.50
2023-03-26T00:11:37.866Z,6.18
2023-03-26T00:14:05.891Z,11.55
2023-03-26T00:16:33.930Z,8.93
2023-03-26T00:19:02.369Z,6.10
2023-03-26T00:21:31.132Z,6.35
2023-03-26T00:24:04.619Z,6.07
2023-03-26T00:26:34.566Z,6.38
2023-03-26T00:29:03.881Z,6.95
2023-03-26T00:31:31.728Z,6.82
2023-03-26T00:33:59.742Z,7.78
2023-03-26T00:36:27.113Z,7.47
2023-03-26T00:38:55.100Z,6.80
2023-03-26T00:41:31.262Z,7.20
2023-03-26T00:44:00.573Z,5.57
2023-03-26T00:46:31.327Z,5.05
2023-03-26T00:49:00.140Z,5.35
2023-03-26T00:51:28.794Z,4.57
2023-03-26T00:53:57.109Z,5.22
2023-03-26T00:56:24.752Z,5.70
2023-03-26T00:58:51.725Z,5.63
2023-03-26T01:01:28.702Z,5.40
2023-03-26T01:04:07.346Z,5.82
2023-03-26T01:06:41.945Z,4.90
2023-03-26T01:09:19.034Z,5.95
2023-03-26T01:11:46.681Z,5.85
2023-03-26T01:14:17.865Z,5.10
2023-03-26T01:16:57.920Z,5.75
2023-03-26T01:19:38.473Z,5.38
2023-03-26T01:22:12.370Z,5.70
2023-03-26T01:24:40.422Z,5.28
2023-03-26T01:27:18.046Z,5.25
2023-03-26T01:29:58.653Z,5.63
2023-03-26T01:32:50.391Z,4.85
2023-03-26T01:35:23.768Z,5.60
2023-03-26T01:38:23.324Z,5.25
2023-03-26T01:41:01.326Z,5.45
2023-03-26T01:43:52.976Z,5.20
2023-03-26T01:46:22.909Z,4.45
2023-03-26T01:48:50.157Z,4.68
2023-03-26T01:51:30.036Z,4.28
2023-03-26T01:53:58.540Z,4.25
2023-03-26T01:56:42.830Z,4.13
2023-03-26T01:59:37.124Z,4.70
2023-03-26T02:02:14.623Z,4.50
2023-03-26T02:04:58.247Z,4.18
2023-03-26T02:08:02.389Z,4.47
2023-03-26T02:10:47.952Z,4.43
2023-03-26T02:13:15.473Z,4.40
2023-03-26T02:16:00.238Z,3.97
2023-03-26T02:18:36.482Z,3.90
2023-03-26T02:21:12.499Z,4.28
2023-03-26T02:23:47.122Z,4.78
2023-03-26T02:26:18.568Z,4.68
2023-03-26T02:28:45.949Z,5.13
2023-03-26T02:31:14.079Z,4.38
2023-03-26T02:33:41.153Z,5.43
2023-03-26T02:36:08.797Z,4.47
2023-03-26T02:38:35.853Z,4.72
2023-03-26T02:41:03.744Z,4.72
2023-03-26T02:43:31.162Z,4.70
2023-03-26T02:45:58.433Z,4.78
2023-03-26T02:48:25.645Z,4.50
2023-03-26T02:50:54.764Z,4.97
2023-03-26T02:53:24.337Z,4.78
2023-03-26T02:55:51.331Z,4.85
2023-03-26T02:58:18.777Z,4.60
2023-03-26T03:00:47.027Z,4.63
2023-03-26T03:03:17.431Z,4.63
2023-03-26T03:05:44.574Z,4.80
2023-03-26T03:08:11.702Z,5.57
2023-03-26T03:10:39.730Z,5.80
2023-03-26T03:13:08.027Z,6.07
2023-03-26T03:15:35.920Z,6.47
2023-03-26T03:18:03.291Z,7.82
2023-03-26T03:20:30.676Z,9.68
2023-03-26T03:22:57.763Z,10.27
2023-03-26T03:25:26.250Z,9.18
2023-03-26T03:27:54.184Z,9.57
2023-03-26T03:30:21.256Z,10.55
2023-03-26T03:32:48.304Z,13.75
2023-03-26T03:35:15.662Z,14.35
2023-03-26T03:37:42.719Z,14.90
2023-03-26T03:40:13.524Z,13.65
2023-03-26T03:42:40.465Z,13.73
2023-03-26T03:45:08.124Z,14.60
2023-03-26T03:47:35.125Z,14.85
2023-03-26T03:50:02.044Z,13.80
2023-03-26T03:52:29.024Z,13.10
2023-03-26T03:54:58.027Z,14.20
2023-03-26T03:57:24.901Z,14.23
2023-03-26T03:59:51.834Z,14.45
2023-03-26T04:02:26.802Z,15.18
2023-03-26T04:04:54.578Z,14.77
2023-03-26T04:07:21.559Z,14.02
2023-03-26T04:09:48.479Z,14.45
2023-03-26T04:12:15.696Z,14.82
2023-03-26T04:14:43.350Z,12.88
2023-03-26T04:17:10.645Z,13.52
2023-03-26T04:19:37.855Z,13.13
2023-03-26T04:22:04.749Z,13.75
2023-03-26T04:24:38.626Z,12.00
2023-03-26T04:27:07.190Z,11.52
2023-03-26T04:29:43.122Z,11.60
2023-03-26T04:32:26.914Z,12.18
2023-03-26T04:34:53.961Z,12.80
2023-03-26T04:37:39.767Z,12.40
2023-03-26T04:40:16.101Z,12.38
2023-03-26T04:42:46.418Z,13.13
2023-03-26T04:45:17.840Z,12.95
2023-03-26T04:47:46.767Z,11.57
2023-03-26T04:50:13.871Z,11.48
2023-03-26T04:52:42.629Z,10.88
2023-03-26T04:55:25.515Z,10.73
2023-03-26T04:58:00.337Z,10.23
2023-03-26T05:00:28.009Z,10.45
2023-03-26T05:02:58.088Z,9.95
2023-03-26T05:05:27.360Z,10.40
2023-03-26T05:07:54.596Z,9.90
2023-03-26T05:10:22.095Z,10.50
2023-03-26T05:12:49.453Z,9.30
2023-03-26T05:15:16.741Z,9.13
2023-03-26T05:17:43.831Z,8.13
2023-03-26T05:20:26.652Z,9.60
2023-03-26T05:22:54.369Z,10.27
2023-03-26T05:25:21.300Z,11.68
2023-03-26T05:27:48.830Z,13.18
2023-03-26T05:30:19.719Z,13.00
2023-03-26T05:32:49.406Z,14.93
2023-03-26T05:35:17.834Z,13.95
2023-03-26T05:37:46.571Z,14.43
2023-03-26T05:40:15.223Z,14.75
2023-03-26T05:42:42.644Z,14.43
2023-03-26T05:45:12.490Z,13.70
2023-03-26T05:47:39.752Z,13.98
2023-03-26T05:50:08.861Z,11.38
2023-03-26T05:52:36.236Z,11.52
2023-03-26T05:55:04.074Z,9.50
2023-03-26T05:57:32.647Z,9.32
2023-03-26T05:59:59.637Z,8.98
2023-03-26T06:02:26.545Z,9.77
2023-03-26T06:04:53.578Z,8.63
2023-03-26T06:07:21.268Z,9.30
2023-03-26T06:09:48.232Z,8.77
2023-03-26T06:12:16.360Z,8.43
2023-03-26T06:14:43.673Z,8.20
2023-03-26T06:17:11.141Z,8.00
2023-03-26T06:19:38.229Z,8.60
2023-03-26T06:22:05.894Z,8.75
2023-03-26T06:24:33.451Z,8.88
2023-03-26T06:27:00.901Z,8.48
2023-03-26T06:29:27.989Z,8.30
2023-03-26T06:31:55.393Z,7.55
2023-03-26T06:34:22.400Z,7.30
2023-03-26T06:36:52.768Z,6.57
2023-03-26T06:39:20.976Z,7.15
2023-03-26T06:41:48.008Z,5.70
2023-03-26T06:44:14.999Z,6.30
2023-03-26T06:46:42.364Z,6.90
2023-03-26T06:49:09.468Z,5.22
2023-03-26T06:51:36.503Z,5.20
2023-03-26T06:54:03.816Z,4.93
2023-03-26T06:56:30.792Z,4.55
2023-03-26T06:58:57.792Z,4.18
2023-03-26T07:01:24.708Z,4.60
2023-03-26T07:03:51.721Z,5.07
2023-03-26T07:06:18.708Z,4.13
2023-03-26T07:08:45.614Z,4.20
2023-03-26T07:11:12.865Z,4.22
2023-03-26T07:13:40.460Z,4.38
2023-03-26T07:16:07.916Z,4.57
2023-03-26T07:18:34.932Z,4.47
2023-03-26T07:21:02.369Z,5.57
2023-03-26T07:23:29.736Z,5.65
2023-03-26T07:25:57.161Z,5.20
2023-03-26T07:28:42.717Z,5.18
2023-03-26T07:31:49.853Z,4.72
2023-03-26T07:34:22.735Z,4.55
2023-03-26T07:37:02.682Z,4.57
2023-03-26T07:40:00.875Z,4.88
2023-03-26T07:42:39.947Z,4.43
2023-03-26T07:45:28.433Z,4.28
2023-03-26T07:47:57.274Z,4.57
2023-03-26T07:50:25.681Z,4.25
2023-03-26T07:52:53.467Z,4.63
2023-03-26T07:55:21.164Z,4.85
2023-03-26T07:58:18.214Z,4.32
2023-03-26T08:00:53.886Z,4.20
2023-03-26T08:03:29.939Z,3.85
2023-03-26T08:06:15.272Z,4.05
2023-03-26T08:09:20.919Z,3.58
2023-03-26T08:12:15.549Z,3.65
2023-03-26T08:14:56.546Z,3.72
2023-03-26T08:17:41.101Z,4.03
2023-03-26T08:20:41.976Z,4.27
2023-03-26T08:23:19.736Z,4.55
2023-03-26T08:26:17.719Z,5.05
2023-03-26T08:29:21.114Z,4.60
2023-03-26T08:31:50.106Z,5.10
2023-03-26T08:34:17.190Z,4.70
2023-03-26T08:36:44.240Z,4.32
2023-03-26T08:39:11.168Z,4.10
2023-03-26T08:42:18.830Z,4.55
2023-03-26T08:45:18.854Z,4.63
2023-03-26T08:48:10.914Z,4.20
2023-03-26T08:50:59.191Z,4.18
2023-03-26T08:54:19.523Z,3.88
2023-03-26T08:57:21.380Z,4.20
2023-03-26T09:00:39.923Z,4.03
2023-03-26T09:03:37.612Z,3.75
2023-03-26T09:06:27.970Z,3.75
2023-03-26T09:09:32.755Z,4.30
2023-03-26T09:12:02.442Z,4.80
2023-03-26T09:14:38.077Z,4.63
2023-03-26T09:17:32.684Z,3.78
2023-03-26T09:20:36.729Z,4.20
2023-03-26T09:23:25.214Z,4.28
2023-03-26T09:26:38.508Z,3.03
2023-03-26T09:29:08.273Z,3.53
2023-03-26T09:32:11.939Z,3.55
2023-03-26T09:35:27.540Z,3.15
2023-03-26T09:38:20.674Z,2.97
2023-03-26T09:41:02.670Z,2.88
2023-03-26T09:44:06.149Z,4.07
2023-03-26T09:47:09.508Z,3.60
2023-03-26T09:49:48.872Z,3.67
2023-03-26T09:53:09.515Z,3.38
2023-03-26T09:56:04.848Z,3.70
2023-03-26T09:58:49.025Z,4.18
2023-03-26T10:01:32.391Z,3.63
2023-03-26T10:04:29.772Z,3.78
2023-03-26T10:07:33.505Z,3.67
2023-03-26T10:10:26.497Z,3.70
2023-03-26T10:13:13.924Z,3.72
2023-03-26T10:16:06.365Z,3.95
2023-03-26T10:19:18.220Z,4.00
2023-03-26T10:22:20.319Z,3.83
2023-03-26T10:25:17.685Z,3.30
2023-03-26T10:28:09.358Z,3.88
2023-03-26T10:31:19.790Z,3.35
2023-03-26T10:34:28.413Z,3.88
2023-03-26T10:37:28.180Z,3.97
2023-03-26T10:40:16.431Z,4.00
2023-03-26T10:43:20.548Z,4.00
2023-03-26T10:46:08.612Z,3.70
2023-03-26T10:49:03.900Z,3.58
2023-03-26T10:51:59.385Z,4.03
2023-03-26T10:55:15.017Z,3.58
2023-03-26T10:57:51.476Z,3.42
2023-03-26T11:00:25.809Z,4.00
2023-03-26T11:03:21.100Z,4.55
2023-03-26T11:06:06.381Z,4.63
2023-03-26T11:08:57.851Z,4.90
2023-03-26T11:11:49.372Z,4.05
2023-03-26T11:14:37.072Z,3.83
2023-03-26T11:17:40.506Z,3.47
2023-03-26T11:20:44.572Z,3.45
2023-03-26T11:24:05.290Z,3.60
2023-03-26T11:27:14.594Z,4.20
2023-03-26T11:30:05.442Z,3.30
2023-03-26T11:32:44.586Z,3.58
2023-03-26T11:35:40.266Z,3.90
2023-03-26T11:38:20.555Z,3.92
2023-03-26T11:40:53.622Z,3.05
2023-03-26T11:43:26.888Z,3.72
2023-03-26T11:45:54.475Z,2.90
2023-03-26T11:48:29.467Z,3.45
2023-03-26T11:56:24.909Z,2.70
2023-03-26T11:58:57.446Z,3.00
2023-03-26T12:01:31.485Z,2.75
2023-03-26T12:04:15.685Z,3.30
2023-03-26T12:06:57.838Z,3.45
2023-03-26T12:09:25.140Z,2.97
2023-03-26T12:12:00.357Z,3.13
2023-03-26T12:14:31.146Z,3.30
2023-03-26T12:17:00.474Z,2.85
2023-03-26T12:19:29.252Z,2.67
2023-03-26T12:21:56.350Z,3.13
2023-03-26T12:24:32.067Z,2.85
2023-03-26T12:27:21.885Z,2.58
2023-03-26T12:30:00.703Z,2.65
2023-03-26T12:35:19.059Z,2.55
2023-03-26T12:37:47.795Z,2.45
2023-03-26T12:40:37.029Z,2.35
2023-03-26T12:44:54.711Z,2.38
2023-03-26T12:47:54.619Z,2.25
2023-03-26T12:49:22.783Z,2.50
2023-03-26T12:52:00.329Z,2.65
2023-03-26T12:55:25.823Z,2.42
2023-03-26T12:58:21.283Z,2.53
2023-03-26T13:00:57.362Z,2.80
2023-03-26T13:03:57.611Z,2.83
2023-03-26T13:06:59.049Z,2.33
2023-03-26T13:09:36.874Z,3.08
2023-03-26T13:12:26.687Z,3.33
2023-03-26T13:15:24.763Z,2.58
2023-03-26T13:18:18.386Z,2.60
2023-03-26T13:21:06.648Z,2.70
2023-03-26T13:24:00.874Z,2.53
2023-03-26T13:26:46.202Z,2.75
2023-03-26T13:29:26.445Z,2.33
2023-03-26T13:32:49.183Z,2.63
2023-03-26T13:35:30.343Z,2.25
2023-03-26T13:38:07.797Z,2.17
2023-03-26T13:41:21.199Z,2.60
2023-03-26T13:44:53.130Z,2.40
2023-03-26T13:47:38.766Z,2.60
2023-03-26T13:50:24.308Z,2.15
2023-03-26T13:52:59.601Z,2.90
2023-03-26T13:55:37.629Z,2.45
2023-03-26T13:58:12.957Z,1.90
2023-03-26T14:00:55.200Z,2.08
2023-03-26T14:03:33.609Z,1.80
2023-03-26T14:06:08.906Z,1.88
2023-03-26T14:08:46.345Z,2.38
2023-03-26T14:11:42.496Z,1.80
2023-03-26T14:14:34.199Z,2.25
2023-03-26T14:17:17.132Z,1.95
2023-03-26T14:20:30.234Z,1.88
2023-03-26T14:23:38.457Z,1.92
2023-03-26T14:26:40.680Z,2.00
2023-03-26T14:29:33.072Z,1.83
2023-03-26T14:32:30.970Z,2.17
2023-03-26T14:35:29.805Z,2.47
2023-03-26T14:38:35.156Z,2.47
2023-03-26T14:41:47.954Z,2.53
2023-03-26T14:44:56.552Z,2.45
2023-03-26T14:47:25.588Z,1.92
2023-03-26T14:50:09.016Z,2.20
2023-03-26T14:53:01.424Z,2.03
2023-03-26T14:55:43.817Z,2.47
2023-03-26T14:59:03.102Z,2.63
2023-03-26T15:02:21.728Z,2.70
2023-03-26T15:04:54.891Z,2.70
2023-03-26T15:07:41.557Z,1.98
2023-03-26T15:10:58.889Z,2.13
2023-03-26T15:13:37.854Z,1.92
2023-03-26T15:16:38.364Z,2.28
2023-03-26T15:20:02.302Z,2.60
2023-03-26T15:23:16.071Z,2.15
2023-03-26T15:26:04.074Z,2.88
2023-03-26T15:28:32.083Z,4.82
2023-03-26T15:31:21.249Z,3.80
2023-03-26T15:34:10.034Z,2.88
2023-03-26T15:37:37.399Z,1.85
2023-03-26T15:40:26.234Z,1.98
2023-03-26T15:43:01.776Z,1.90
2023-03-26T15:45:32.829Z,2.28
2023-03-26T15:48:12.544Z,2.05
2023-03-26T15:51:19.514Z,2.20
2023-03-26T15:54:04.583Z,2.25
2023-03-26T15:56:56.817Z,2.20
2023-03-26T15:59:51.279Z,1.95
2023-03-26T16:02:50.556Z,1.83
2023-03-26T16:05:29.368Z,2.35
2023-03-26T16:08:26.810Z,2.25
2023-03-26T16:11:07.926Z,6.07
2023-03-26T16:13:42.047Z,4.20
2023-03-26T16:16:14.979Z,2.78
2023-03-26T16:19:20.898Z,2.75
2023-03-26T16:22:08.592Z,2.60
2023-03-26T16:24:46.713Z,2.28
2023-03-26T16:27:13.561Z,2.45
2023-03-26T16:30:09.820Z,2.53
2023-03-26T16:32:44.930Z,2.83
2023-03-26T16:37:54.079Z,2.67
2023-03-26T16:40:32.805Z,1.90
2023-03-26T16:43:36.361Z,2.33
2023-03-26T16:46:34.641Z,1.98
2023-03-26T16:49:15.555Z,2.05
2023-03-26T16:52:07.946Z,2.45
2023-03-26T16:54:47.991Z,2.50
2023-03-26T16:58:17.253Z,1.92
2023-03-26T17:01:28.515Z,2.00
2023-03-26T17:04:08.680Z,2.20
2023-03-26T17:07:14.243Z,1.95
2023-03-26T17:09:56.571Z,1.98
2023-03-26T17:13:16.916Z,2.70
2023-03-26T17:16:25.225Z,2.35
2023-03-26T17:19:36.198Z,2.05
2023-03-26T17:22:15.808Z,2.30
2023-03-26T17:24:59.719Z,2.17
2023-03-26T17:27:43.835Z,2.22
2023-03-26T17:30:42.329Z,3.08
2023-03-26T17:33:35.197Z,2.65
2023-03-26T17:36:11.470Z,2.40
2023-03-26T17:38:45.489Z,3.00
2023-03-26T17:41:17.680Z,2.80
2023-03-26T17:43:52.194Z,2.20
2023-03-26T17:46:40.235Z,2.83
2023-03-26T17:49:13.788Z,2.30
2023-03-26T17:51:50.693Z,1.98
2023-03-26T17:54:47.322Z,2.40
2023-03-26T17:57:32.924Z,1.83
2023-03-26T18:00:01.548Z,2.33
2023-03-26T18:02:49.969Z,2.60
2023-03-26T18:05:17.721Z,2.67
2023-03-26T18:08:12.256Z,3.08
2023-03-26T18:11:14.397Z,3.67
2023-03-26T18:13:54.723Z,3.53
2023-03-26T18:16:26.819Z,2.72
2023-03-26T18:19:17.912Z,4.80
2023-03-26T18:21:50.510Z,2.58
2023-03-26T18:24:32.146Z,3.47
2023-03-26T18:27:03.376Z,2.55
2023-03-26T18:29:33.826Z,3.72
2023-03-26T18:32:07.767Z,2.55
2023-03-26T18:34:38.299Z,2.17
2023-03-26T18:37:11.077Z,1.77
2023-03-26T18:39:38.831Z,2.03
2023-03-26T18:42:07.085Z,1.70
2023-03-26T18:44:39.338Z,1.48
2023-03-26T18:47:09.830Z,2.05
2023-03-26T18:49:37.373Z,2.30
2023-03-26T18:52:04.687Z,2.55
2023-03-26T18:54:35.736Z,3.83
2023-03-26T18:57:16.606Z,1.77
2023-03-26T18:59:45.677Z,3.95
2023-03-26T19:02:14.042Z,5.30
2023-03-26T19:04:46.193Z,2.95
2023-03-26T19:07:22.512Z,2.22
2023-03-26T19:09:51.097Z,2.00
2023-03-26T19:12:24.583Z,3.78
2023-03-26T19:14:56.607Z,2.80
2023-03-26T19:17:28.689Z,2.10
2023-03-26T19:19:57.491Z,1.80
2023-03-26T19:22:25.937Z,1.80
2023-03-26T19:25:01.252Z,2.53
2023-03-26T19:27:29.425Z,2.40
2023-03-26T19:29:56.544Z,2.25
2023-03-26T19:32:33.242Z,3.58
2023-03-26T19:35:02.444Z,3.33
2023-03-26T19:37:31.724Z,3.80
2023-03-26T19:40:19.603Z,3.50
2023-03-26T19:42:48.154Z,2.80
2023-03-26T19:45:20.601Z,3.80
2023-03-26T19:47:57.343Z,3.00
2023-03-26T19:50:30.838Z,3.13
2023-03-26T19:53:32.736Z,9.18
2023-03-26T19:56:22.066Z,10.50
2023-03-26T19:58:53.108Z,9.35
2023-03-26T20:01:29.630Z,5.70
2023-03-26T20:04:01.765Z,4.32
2023-03-26T20:06:41.629Z,3.65
2023-03-26T20:09:12.585Z,2.90
2023-03-26T20:11:41.039Z,2.97
2023-03-26T20:14:18.396Z,3.50
2023-03-26T20:16:46.176Z,3.42
2023-03-26T20:19:15.515Z,2.92
2023-03-26T20:21:44.582Z,3.22
2023-03-26T20:24:17.931Z,2.65
2023-03-26T20:26:46.934Z,3.22
2023-03-26T20:29:15.230Z,3.42
2023-03-26T20:31:43.327Z,3.13
2023-03-26T20:34:20.239Z,4.28
2023-03-26T20:36:47.697Z,3.22
2023-03-26T20:39:14.902Z,3.00
2023-03-26T20:41:48.692Z,2.85
2023-03-26T20:44:19.065Z,3.10
2023-03-26T20:46:48.777Z,3.60
2023-03-26T20:49:16.664Z,4.10
2023-03-26T20:51:45.687Z,3.58
2023-03-26T20:54:20.401Z,3.83
2023-03-26T20:56:49.617Z,3.40
2023-03-26T20:59:27.010Z,3.20
2023-03-26T21:01:57.169Z,3.00
2023-03-26T21:04:26.402Z,2.58
2023-03-26T21:06:57.550Z,2.90
2023-03-26T21:09:35.462Z,2.70
2023-03-26T21:12:08.682Z,2.90
2023-03-26T21:14:44.439Z,2.80
2023-03-26T21:17:22.683Z,2.42
2023-03-26T21:19:50.354Z,3.15
2023-03-26T21:22:36.791Z,2.95
2023-03-26T21:25:22.993Z,3.28
2023-03-26T21:28:08.501Z,3.63
2023-03-26T21:30:36.034Z,2.58
2023-03-26T21:33:05.644Z,2.83
2023-03-26T21:35:35.035Z,2.65
2023-03-26T21:38:04.988Z,2.80
2023-03-26T21:40:33.536Z,2.50
2023-03-26T21:43:00.802Z,2.42
2023-03-26T21:45:28.418Z,2.50
2023-03-26T21:47:56.085Z,2.63
2023-03-26T21:50:24.498Z,2.40
2023-03-26T21:52:52.601Z,2.42
2023-03-26T21:55:26.171Z,1.90
2023-03-26T21:58:13.425Z,1.88
2023-03-26T22:01:10.086Z,2.50
2023-03-26T22:04:02.162Z,2.28
2023-03-26T22:06:56.166Z,2.15
2023-03-26T22:09:33.873Z,2.10
2023-03-26T22:12:03.691Z,2.25
2023-03-26T22:14:30.639Z,2.70
2023-03-26T22:16:57.546Z,2.33
2023-03-26T22:19:24.639Z,2.30
2023-03-26T22:21:51.535Z,2.15
2023-03-26T22:24:18.431Z,2.60
2023-03-26T22:26:45.414Z,1.98
2023-03-26T22:29:12.356Z,2.00
2023-03-26T22:31:39.966Z,2.70
2023-03-26T22:34:07.901Z,2.35
2023-03-26T22:36:36.040Z,2.35
2023-03-26T22:39:04.782Z,2.22
2023-03-26T22:41:32.130Z,3.13
2023-03-26T22:44:09.259Z,3.10
2023-03-26T22:46:47.609Z,3.42
2023-03-26T22:49:14.564Z,3.85
2023-03-26T22:51:41.647Z,3.30
2023-03-26T22:54:08.961Z,3.78
2023-03-26T22:56:36.634Z,4.07
2023-03-26T22:59:04.034Z,3.10
2023-03-26T23:01:31.112Z,3.22
2023-03-26T23:03:58.369Z,3.60
2023-03-26T23:06:25.623Z,3.70
2023-03-26T23:08:52.757Z,3.83
2023-03-26T23:11:22.368Z,3.97
2023-03-26T23:13:49.892Z,3.97
2023-03-26T23:16:18.236Z,3.50
2023-03-26T23:18:45.903Z,3.10
2023-03-26T23:21:19.447Z,3.65
2023-03-26T23:23:48.942Z,3.10
2023-03-26T23:26:16.653Z,3.65
2023-03-26T23:28:43.736Z,3.28
2023-03-26T23:31:12.953Z,3.35
2023-03-26T23:33:46.432Z,3.47
2023-03-26T23:36:19.489Z,3.25
2023-03-26T23:38:48.811Z,3.80
2023-03-26T23:41:22.008Z,3.10
2023-03-26T23:43:55.839Z,3.10
2023-03-26T23:46:25.919Z,3.38
2023-03-26T23:48:53.429Z,3.10
2023-03-26T23:51:22.545Z,3.25
2023-03-26T23:53:49.999Z,3.42
2023-03-26T23:56:17.979Z,3.47
2023-03-26T23:58:45.273Z,2.92
